Time;durP1;ratioP1;P1;durP2;ratioP2;P2;SDS_P1;SDS_P2;PMS_P1;PMS_P2;Temp;Humidity;BMP_temperature;BMP_pressure;BME280_temperature;BME280_humidity;BME280_pressure;Samples;Min_cycle;Max_cycle;Signal;HPM_P1;HPM_P2
2021/10/25 00:01:17;;;;;;;14.40;5.55;;;14.30;58.70;;;;;;6225944;28;20038;-75
2021/10/25 00:04:18;;;;;;;18.80;6.25;;;14.20;58.80;;;;;;6226605;28;20521;-75
2021/10/25 00:07:19;;;;;;;8.75;5.13;;;14.10;58.90;;;;;;6226010;28;20042;-75
2021/10/25 00:10:20;;;;;;;13.60;5.13;;;14.10;58.90;;;;;;6226640;28;20037;-74
2021/10/25 00:13:21;;;;;;;12.27;5.05;;;14.00;59.00;;;;;;6223615;28;20030;-75
2021/10/25 00:16:22;;;;;;;10.07;4.88;;;13.90;59.10;;;;;;6226443;28;20422;-74
2021/10/25 00:19:23;;;;;;;10.75;4.95;;;13.90;59.30;;;;;;6226097;28;20375;-75
2021/10/25 00:22:24;;;;;;;8.38;4.78;;;13.90;59.30;;;;;;6225822;28;20370;-74
2021/10/25 00:25:25;;;;;;;12.98;5.13;;;13.90;59.40;;;;;;6225756;28;20034;-74
2021/10/25 00:28:26;;;;;;;9.52;4.43;;;13.80;59.50;;;;;;6232461;28;20410;-75
2021/10/25 00:31:27;;;;;;;11.68;5.43;;;13.80;59.50;;;;;;6224458;28;20026;-75
2021/10/25 00:34:28;;;;;;;6.07;3.90;;;13.80;59.60;;;;;;6225106;28;20040;-74
2021/10/25 00:37:29;;;;;;;10.93;4.65;;;13.70;59.70;;;;;;6224847;28;20026;-74
2021/10/25 00:40:30;;;;;;;5.70;3.85;;;13.60;59.80;;;;;;6224915;28;20038;-75
2021/10/25 00:43:32;;;;;;;7.47;4.07;;;13.60;60.00;;;;;;6241159;28;20352;-74
2021/10/25 00:46:33;;;;;;;7.38;3.90;;;13.50;60.10;;;;;;6225425;28;20092;-74
2021/10/25 00:49:34;;;;;;;7.00;4.20;;;13.50;60.20;;;;;;6225748;28;20119;-75
2021/10/25 00:52:36;;;;;;;6.95;4.22;;;13.40;60.10;;;;;;6224888;28;20041;-74
2021/10/25 00:55:39;;;;;;;9.35;4.28;;;13.40;60.10;;;;;;6201874;28;20460;-75
2021/10/25 00:58:40;;;;;;;8.45;4.25;;;13.40;60.00;;;;;;6225401;28;20057;-75
2021/10/25 01:01:46;;;;;;;10.35;4.38;;;13.40;60.90;;;;;;6209642;28;20069;-76
2021/10/25 01:04:47;;;;;;;7.97;4.22;;;13.40;60.30;;;;;;6224431;28;20459;-75
2021/10/25 01:07:48;;;;;;;8.77;3.88;;;13.30;60.50;;;;;;6223708;28;20096;-75
2021/10/25 01:10:52;;;;;;;9.27;3.60;;;13.30;60.70;;;;;;6208460;28;20034;-74
2021/10/25 01:13:53;;;;;;;7.40;3.83;;;13.30;60.90;;;;;;6224388;28;20049;-74
2021/10/25 01:16:54;;;;;;;9.70;4.93;;;13.30;61.10;;;;;;6224082;28;20034;-75
2021/10/25 01:19:55;;;;;;;10.88;4.45;;;13.20;61.10;;;;;;6225115;28;20033;-74
2021/10/25 01:22:57;;;;;;;7.22;3.92;;;13.20;61.30;;;;;;6219387;28;20038;-74
2021/10/25 01:25:59;;;;;;;7.93;4.07;;;13.20;61.40;;;;;;6240148;28;20133;-74
2021/10/25 01:29:00;;;;;;;8.65;4.20;;;13.20;61.50;;;;;;6207661;28;20061;-74
2021/10/25 01:32:00;;;;;;;9.85;4.30;;;13.20;61.50;;;;;;6224307;28;20046;-75
2021/10/25 01:35:03;;;;;;;10.52;4.22;;;13.20;61.60;;;;;;6223414;28;20041;-75
2021/10/25 01:38:06;;;;;;;10.13;4.30;;;13.20;61.70;;;;;;6207557;28;20042;-74
2021/10/25 01:41:10;;;;;;;9.07;4.72;;;13.10;61.70;;;;;;6223329;28;20506;-73
2021/10/25 01:44:12;;;;;;;9.20;4.82;;;13.10;61.80;;;;;;6223996;28;20030;-74
2021/10/25 01:47:13;;;;;;;11.77;4.40;;;13.10;61.90;;;;;;6205728;28;20054;-74
2021/10/25 01:50:16;;;;;;;7.38;3.85;;;13.10;62.00;;;;;;6224198;28;20029;-74
2021/10/25 01:53:17;;;;;;;8.55;4.15;;;13.10;62.10;;;;;;6239229;28;20034;-74
2021/10/25 01:56:24;;;;;;;9.02;3.60;;;13.10;62.10;;;;;;6239129;28;20125;-74
2021/10/25 01:59:27;;;;;;;9.30;4.07;;;13.10;62.00;;;;;;6221816;28;20084;-74
2021/10/25 02:02:28;;;;;;;10.13;4.28;;;13.10;61.80;;;;;;6206636;28;20042;-74
2021/10/25 02:05:30;;;;;;;16.00;4.82;;;13.10;61.80;;;;;;6224617;28;20111;-75
2021/10/25 02:08:32;;;;;;;8.13;4.25;;;13.10;61.80;;;;;;6222981;28;20045;-75
2021/10/25 02:11:36;;;;;;;8.25;4.05;;;13.10;61.80;;;;;;6219779;28;20538;-75
2021/10/25 02:14:40;;;;;;;12.07;4.28;;;13.10;61.80;;;;;;6239274;28;20034;-75
2021/10/25 02:17:41;;;;;;;9.77;3.95;;;13.10;62.30;;;;;;6222464;28;20144;-75
2021/10/25 02:20:42;;;;;;;7.40;3.45;;;13.00;61.80;;;;;;6205765;28;20038;-75
2021/10/25 02:23:46;;;;;;;18.70;3.95;;;13.00;61.90;;;;;;6206873;28;20095;-75
2021/10/25 02:26:47;;;;;;;9.95;4.18;;;13.00;61.90;;;;;;6222633;28;20395;-75
2021/10/25 02:29:48;;;;;;;8.80;4.10;;;13.00;62.00;;;;;;6219425;28;20044;-74
2021/10/25 02:33:00;;;;;;;8.90;4.25;;;13.00;62.00;;;;;;6223373;28;20034;-74
2021/10/25 02:36:01;;;;;;;11.27;4.65;;;13.00;62.10;;;;;;6205654;28;20029;-75
2021/10/25 02:39:06;;;;;;;9.07;4.32;;;12.90;62.00;;;;;;6219956;28;20033;-74
2021/10/25 02:42:08;;;;;;;11.60;4.55;;;12.90;62.10;;;;;;6222003;28;20030;-74
2021/10/25 02:45:10;;;;;;;7.82;4.25;;;12.90;62.10;;;;;;6221915;28;20351;-75
2021/10/25 02:48:12;;;;;;;12.02;4.57;;;12.90;62.10;;;;;;6205816;28;20514;-74
2021/10/25 02:51:15;;;;;;;7.75;4.00;;;12.90;62.10;;;;;;6221839;28;20486;-75
2021/10/25 02:54:16;;;;;;;6.63;3.22;;;12.90;62.10;;;;;;6223194;28;20117;-75
2021/10/25 02:57:23;;;;;;;11.00;4.00;;;12.90;61.90;;;;;;6222390;28;20076;-74
2021/10/25 03:00:24;;;;;;;11.32;3.42;;;12.90;61.70;;;;;;6221524;28;20030;-75
2021/10/25 03:03:25;;;;;;;10.02;3.15;;;13.00;61.60;;;;;;6221934;28;20038;-75
2021/10/25 03:06:26;;;;;;;6.57;2.80;;;13.00;61.30;;;;;;6220923;28;20112;-75
2021/10/25 03:09:27;;;;;;;7.20;3.85;;;13.00;60.90;;;;;;6222951;28;20030;-75
2021/10/25 03:12:28;;;;;;;7.20;3.38;;;13.00;60.70;;;;;;6223225;28;20034;-75
2021/10/25 03:15:34;;;;;;;10.40;4.15;;;13.00;60.80;;;;;;6224032;28;20030;-73
2021/10/25 03:18:41;;;;;;;13.00;5.18;;;13.00;60.90;;;;;;6238552;28;20034;-75
2021/10/25 03:21:42;;;;;;;10.98;4.88;;;13.00;61.10;;;;;;6221746;28;20499;-74
2021/10/25 03:24:44;;;;;;;10.45;4.43;;;13.00;61.20;;;;;;6205648;28;20030;-74
2021/10/25 03:27:45;;;;;;;9.65;4.65;;;13.00;61.40;;;;;;6221678;28;20586;-75
2021/10/25 03:30:47;;;;;;;8.75;4.18;;;12.90;61.50;;;;;;6235485;28;20430;-74
2021/10/25 03:33:49;;;;;;;12.48;4.65;;;12.90;61.60;;;;;;6206744;28;20079;-74
2021/10/25 03:36:55;;;;;;;7.00;4.05;;;12.80;61.60;;;;;;6237302;28;20052;-75
2021/10/25 03:39:56;;;;;;;7.28;4.32;;;12.80;61.80;;;;;;6244879;28;20053;-75
2021/10/25 03:42:58;;;;;;;8.15;4.47;;;12.70;61.80;;;;;;6230210;28;20046;-74
2021/10/25 03:49:35;;;;;;;9.82;4.43;;;12.70;62.00;;;;;;6225138;28;20034;-73
2021/10/25 04:29:50;;;;;;;8.25;3.47;;;12.20;64.30;;;;;;6083569;28;20059;-74
2021/10/25 04:32:51;;;;;;;9.95;4.25;;;12.20;64.40;;;;;;6123652;28;20036;-75
2021/10/25 04:36:15;;;;;;;9.30;4.28;;;12.20;64.60;;;;;;6034249;29;20455;-74
2021/10/25 04:39:21;;;;;;;8.85;4.47;;;12.10;64.60;;;;;;6033314;29;20041;-74
2021/10/25 04:42:22;;;;;;;10.65;3.50;;;12.10;64.70;;;;;;6019811;29;20049;-75
2021/10/25 04:45:23;;;;;;;8.55;3.85;;;12.10;64.70;;;;;;6028801;29;20038;-75
2021/10/25 04:48:33;;;;;;;11.40;3.78;;;12.10;64.70;;;;;;6028601;29;20045;-75
2021/10/25 04:51:37;;;;;;;7.07;4.35;;;12.10;64.50;;;;;;6029841;29;20041;-74
2021/10/25 04:54:53;;;;;;;10.73;4.32;;;12.10;64.30;;;;;;6050854;29;20467;-77
2021/10/25 04:57:54;;;;;;;10.65;3.85;;;12.20;64.20;;;;;;6051142;29;20045;-75
2021/10/25 05:00:55;;;;;;;7.95;4.05;;;12.10;64.20;;;;;;6118423;28;20456;-73
2021/10/25 05:03:56;;;;;;;12.95;3.97;;;12.10;64.30;;;;;;6108231;29;20103;-76
2021/10/25 05:06:57;;;;;;;8.82;3.22;;;12.10;64.40;;;;;;6129785;28;20114;-74
2021/10/25 05:10:02;;;;;;;9.75;4.15;;;12.10;64.40;;;;;;6127676;28;20043;-75
2021/10/25 05:13:03;;;;;;;10.27;4.03;;;12.10;64.50;;;;;;6173210;28;20041;-75
2021/10/25 05:16:04;;;;;;;11.52;3.88;;;12.00;64.50;;;;;;6202188;28;20470;-74
2021/10/25 05:19:06;;;;;;;12.18;4.55;;;12.00;64.50;;;;;;6234753;28;20474;-75
2021/10/25 05:22:07;;;;;;;9.88;3.63;;;12.00;64.70;;;;;;6201836;28;20037;-75
2021/10/25 05:25:09;;;;;;;6.80;3.35;;;12.00;64.80;;;;;;6217589;28;20025;-75
2021/10/25 05:28:10;;;;;;;8.40;3.78;;;11.90;64.90;;;;;;6201728;28;20038;-76
2021/10/25 05:31:11;;;;;;;8.15;4.18;;;11.90;65.10;;;;;;6218229;28;20108;-74
2021/10/25 05:34:16;;;;;;;10.60;4.70;;;11.90;65.10;;;;;;6189799;28;20042;-75
2021/10/25 05:37:16;;;;;;;6.50;3.85;;;11.80;65.20;;;;;;6197919;28;20042;-74
2021/10/25 05:40:18;;;;;;;7.47;4.22;;;11.80;65.40;;;;;;6212531;28;20085;-75
2021/10/25 05:43:24;;;;;;;8.38;4.57;;;11.80;65.50;;;;;;6216718;28;20065;-74
2021/10/25 05:46:26;;;;;;;6.97;3.90;;;11.80;65.50;;;;;;6212461;28;20038;-74
2021/10/25 05:49:27;;;;;;;11.07;4.85;;;11.80;65.50;;;;;;6202571;28;20107;-74
2021/10/25 05:52:29;;;;;;;10.57;4.20;;;11.80;65.60;;;;;;6218688;28;20034;-74
2021/10/25 05:55:31;;;;;;;10.43;4.68;;;11.80;65.70;;;;;;6220100;28;20042;-74
2021/10/25 05:58:32;;;;;;;9.52;4.20;;;11.80;65.80;;;;;;6211857;28;20104;-74
2021/10/25 06:01:55;;;;;;;8.80;4.10;;;11.80;65.80;;;;;;6220050;28;20062;-75
2021/10/25 06:04:59;;;;;;;7.85;3.75;;;11.80;65.80;;;;;;6215734;28;20029;-75
2021/10/25 06:08:01;;;;;;;9.63;4.38;;;11.80;65.90;;;;;;6218082;28;20045;-75
2021/10/25 06:11:02;;;;;;;12.38;4.65;;;11.80;66.00;;;;;;6201626;28;20152;-75
2021/10/25 06:14:06;;;;;;;12.40;4.40;;;11.80;66.00;;;;;;6230374;28;20494;-75
2021/10/25 06:17:38;;;;;;;6.80;3.65;;;11.80;65.90;;;;;;6216197;28;20072;-76
2021/10/25 06:20:45;;;;;;;12.57;4.07;;;11.80;66.00;;;;;;6195731;28;20092;-74
2021/10/25 06:23:54;;;;;;;14.35;4.40;;;11.80;66.00;;;;;;6199990;28;20132;-75
2021/10/25 06:27:08;;;;;;;12.93;4.90;;;11.80;66.00;;;;;;6194672;28;20034;-75
2021/10/25 06:30:10;;;;;;;10.65;4.28;;;11.80;66.00;;;;;;6200436;28;20293;-75
2021/10/25 06:33:15;;;;;;;7.30;3.78;;;11.80;65.80;;;;;;6228447;28;20078;-75
2021/10/25 06:36:47;;;;;;;10.60;4.07;;;11.90;65.70;;;;;;6191253;28;20042;-74
2021/10/25 06:39:56;;;;;;;9.68;4.53;;;11.90;65.60;;;;;;6175727;28;20042;-73
2021/10/25 06:42:58;;;;;;;10.35;3.75;;;12.00;65.60;;;;;;6205015;28;20073;-80
2021/10/25 06:45:59;;;;;;;9.10;3.83;;;12.00;65.40;;;;;;6190011;28;20578;-72
2021/10/25 06:49:01;;;;;;;8.38;4.07;;;12.10;65.40;;;;;;6191272;28;20038;-77
2021/10/25 06:52:04;;;;;;;8.57;4.10;;;12.10;65.30;;;;;;6200786;28;20046;-73
2021/10/25 06:55:06;;;;;;;13.07;4.20;;;12.20;65.40;;;;;;6203504;28;20038;-73
2021/10/25 06:58:08;;;;;;;13.60;4.95;;;12.20;65.30;;;;;;6209198;28;20030;-75
2021/10/25 07:01:10;;;;;;;10.50;4.85;;;12.20;65.20;;;;;;6206266;28;20451;-74
2021/10/25 07:04:12;;;;;;;8.02;4.28;;;12.30;65.10;;;;;;6192080;28;20031;-75
2021/10/25 07:07:13;;;;;;;7.97;4.22;;;12.30;65.00;;;;;;6203531;28;20036;-75
2021/10/25 07:10:16;;;;;;;12.40;4.75;;;12.30;64.90;;;;;;6184646;28;20035;-74
2021/10/25 07:13:21;;;;;;;9.25;4.10;;;12.40;64.90;;;;;;6199182;28;20026;-74
2021/10/25 07:16:28;;;;;;;12.73;3.95;;;12.40;64.80;;;;;;6201143;28;20034;-74
2021/10/25 07:20:06;;;;;;;8.23;4.30;;;12.40;64.60;;;;;;6214966;28;20036;-75
2021/10/25 07:23:43;;;;;;;9.35;4.38;;;12.40;64.60;;;;;;6187917;28;20178;-76
2021/10/25 07:27:07;;;;;;;9.63;4.60;;;12.40;64.60;;;;;;6235922;28;20054;-74
2021/10/25 08:01:38;;;;;;;8.02;4.18;;;12.80;63.80;;;;;;6228026;28;20453;-74
2021/10/25 08:08:01;;;;;;;12.82;4.72;;;12.80;63.70;;;;;;6221633;28;20037;-74
2021/10/25 08:11:11;;;;;;;8.63;3.92;;;12.90;64.00;;;;;;6219411;28;20139;-73
2021/10/25 08:14:31;;;;;;;9.23;5.10;;;13.00;63.70;;;;;;6202035;28;20421;-74
2021/10/25 08:17:45;;;;;;;15.68;5.20;;;13.10;63.50;;;;;;6218636;28;20088;-73
2021/10/25 08:20:45;;;;;;;7.38;3.80;;;13.20;63.30;;;;;;6215600;28;20440;-74
2021/10/25 08:23:49;;;;;;;7.22;3.97;;;13.30;62.90;;;;;;6226578;28;20061;-75
2021/10/25 08:27:10;;;;;;;18.15;4.85;;;13.40;62.70;;;;;;6218543;28;20094;-74
2021/10/25 08:30:17;;;;;;;7.00;4.03;;;13.60;62.40;;;;;;6238659;28;20038;-74
2021/10/25 08:40:03;;;;;;;12.75;4.90;;;13.90;61.70;;;;;;6204313;28;20050;-73
2021/10/25 08:43:09;;;;;;;12.32;4.65;;;14.00;61.20;;;;;;6218007;28;20053;-74
2021/10/25 08:46:14;;;;;;;10.80;4.57;;;14.10;60.60;;;;;;6219682;28;20069;-73
2021/10/25 08:49:18;;;;;;;13.05;4.53;;;14.20;60.60;;;;;;6219600;28;20471;-74
2021/10/25 08:52:22;;;;;;;12.88;4.80;;;14.30;60.40;;;;;;6217930;28;20068;-72
2021/10/25 08:55:24;;;;;;;15.85;4.75;;;14.40;60.00;;;;;;6217769;28;20129;-75
2021/10/25 08:58:25;;;;;;;10.25;4.88;;;14.50;59.70;;;;;;6200436;28;20092;-73
2021/10/25 09:01:32;;;;;;;17.35;8.23;;;14.60;59.60;;;;;;6220571;28;20406;-72
2021/10/25 09:04:54;;;;;;;11.65;5.40;;;14.70;59.50;;;;;;6232403;28;20069;-74
2021/10/25 09:08:03;;;;;;;9.23;4.65;;;14.80;59.20;;;;;;6218544;28;20034;-73
2021/10/25 09:11:10;;;;;;;7.78;4.30;;;14.90;59.00;;;;;;6237711;28;20037;-74
2021/10/25 09:14:25;;;;;;;12.60;4.22;;;15.00;58.80;;;;;;6226332;28;20037;-73
2021/10/25 09:17:42;;;;;;;9.80;4.28;;;15.20;58.70;;;;;;6211325;28;20035;-75
2021/10/25 09:21:03;;;;;;;6.90;3.23;;;15.30;58.30;;;;;;6216709;28;20038;-75
2021/10/25 09:24:17;;;;;;;10.27;4.20;;;15.30;57.90;;;;;;6217121;28;20121;-73
2021/10/25 09:27:38;;;;;;;7.13;3.88;;;15.40;57.70;;;;;;6215135;28;20451;-74
2021/10/25 09:31:03;;;;;;;7.18;3.95;;;15.50;57.30;;;;;;6230939;28;20423;-74
2021/10/25 09:34:12;;;;;;;13.10;4.68;;;15.50;57.20;;;;;;6215474;28;20034;-74
2021/10/25 09:37:43;;;;;;;14.18;5.95;;;15.60;57.10;;;;;;6213493;28;20046;-73
2021/10/25 09:50:54;;;;;;;7.38;3.67;;;16.00;56.30;;;;;;6212465;28;20060;-79
2021/10/25 09:53:59;;;;;;;11.57;3.65;;;16.10;56.00;;;;;;6208757;28;20037;-74
2021/10/25 10:00:18;;;;;;;10.60;3.47;;;16.30;55.30;;;;;;6212019;28;20045;-76
2021/10/25 10:03:24;;;;;;;23.77;9.02;;;16.50;54.70;;;;;;6199507;28;20037;-73
2021/10/25 10:06:37;;;;;;;17.52;6.63;;;16.80;54.30;;;;;;6209380;28;20046;-72
2021/10/25 10:09:40;;;;;;;9.43;5.28;;;17.20;53.60;;;;;;6199895;28;20133;-79
2021/10/25 10:12:43;;;;;;;19.95;7.03;;;17.50;53.20;;;;;;6227546;28;20061;-74
2021/10/25 10:15:45;;;;;;;10.13;4.95;;;17.80;52.80;;;;;;6197677;28;20044;-73
2021/10/25 10:18:54;;;;;;;13.13;5.28;;;18.10;52.30;;;;;;6192319;28;20057;-74
2021/10/25 10:22:27;;;;;;;;;;;18.30;52.00;;;;;;6165346;28;20046;-73
2021/10/25 10:26:05;;;;;;;37.78;13.27;;;18.50;50.80;;;;;;6167108;28;19914;-75
2021/10/25 10:29:25;;;;;;;;;;;18.70;50.50;;;;;;6138416;28;20062;-73
2021/10/25 10:32:40;;;;;;;32.72;14.68;;;18.90;49.70;;;;;;6160938;28;20279;-73
2021/10/25 10:36:15;;;;;;;16.23;6.43;;;19.10;49.60;;;;;;6160463;28;20407;-75
2021/10/25 10:39:39;;;;;;;10.85;3.95;;;19.30;49.30;;;;;;6119220;29;20039;-74
2021/10/25 10:42:58;;;;;;;6.60;3.75;;;19.50;48.90;;;;;;6118586;29;20130;-73
2021/10/25 10:46:11;;;;;;;11.38;4.28;;;19.70;48.70;;;;;;6119212;28;20036;-73
2021/10/25 10:49:48;;;;;;;9.98;4.07;;;19.90;48.10;;;;;;6111375;29;20469;-75
2021/10/25 10:53:05;;;;;;;9.13;4.32;;;20.20;47.60;;;;;;6109637;29;20338;-72
2021/10/25 10:57:06;;;;;;;13.98;5.30;;;20.50;47.20;;;;;;6135390;28;20039;-75
2021/10/25 10:59:36;;;;;;;4.95;2.67;;;20.70;46.30;;;;;;6111583;28;20400;-73
2021/10/25 11:02:48;;;;;;;6.00;2.53;;;21.00;44.80;;;;;;6134846;28;20070;-74
2021/10/25 11:06:17;;;;;;;6.35;2.70;;;21.30;43.40;;;;;;6134022;28;20057;-75
2021/10/25 11:09:17;;;;;;;9.95;3.25;;;21.60;42.40;;;;;;6073329;29;20032;-73
2021/10/25 11:12:21;;;;;;;10.80;2.60;;;22.00;41.20;;;;;;6097914;29;20181;-74
2021/10/25 11:15:22;;;;;;;6.72;3.28;;;22.30;40.60;;;;;;6105515;28;20043;-73
2021/10/25 11:18:31;;;;;;;10.95;4.22;;;22.70;39.80;;;;;;6158071;28;20100;-73
2021/10/25 11:21:36;;;;;;;18.15;4.55;;;23.10;39.20;;;;;;6169388;28;20039;-75
2021/10/25 11:24:37;;;;;;;5.13;2.58;;;23.40;38.30;;;;;;6136712;28;20039;-73
2021/10/25 11:27:40;;;;;;;3.97;2.78;;;23.80;36.50;;;;;;6161050;28;20053;-73
2021/10/25 11:30:40;;;;;;;3.85;2.30;;;24.10;35.50;;;;;;6180149;28;20484;-74
2021/10/25 11:33:46;;;;;;;3.13;1.95;;;24.40;34.50;;;;;;6155493;28;20070;-72
2021/10/25 11:37:05;;;;;;;3.70;1.98;;;24.60;33.90;;;;;;6147552;28;20039;-73
2021/10/25 11:40:11;;;;;;;4.22;2.30;;;24.90;34.60;;;;;;6150050;28;20038;-72
2021/10/25 11:43:12;;;;;;;5.47;2.40;;;25.50;33.60;;;;;;6135123;28;21712;-72
2021/10/25 11:46:18;;;;;;;5.20;2.00;;;26.00;32.00;;;;;;6191828;28;20046;-72
2021/10/25 11:49:23;;;;;;;2.47;1.33;;;26.40;31.10;;;;;;6207041;28;20451;-73
2021/10/25 11:52:24;;;;;;;3.88;1.90;;;26.70;30.50;;;;;;6219583;28;20042;-74
2021/10/25 11:55:28;;;;;;;7.32;3.53;;;27.00;30.20;;;;;;6218939;28;20041;-74
2021/10/25 11:58:29;;;;;;;5.78;2.17;;;27.20;29.90;;;;;;6220302;28;20065;-73
2021/10/25 12:01:30;;;;;;;3.92;2.28;;;27.10;29.80;;;;;;6203305;28;20034;-83
2021/10/25 12:04:46;;;;;;;3.28;1.83;;;27.10;29.80;;;;;;6197786;28;20093;-77
2021/10/25 12:07:49;;;;;;;4.47;1.90;;;27.00;30.00;;;;;;6218580;28;20120;-74
2021/10/25 12:10:53;;;;;;;6.05;2.00;;;27.10;30.00;;;;;;6193005;28;20121;-74
2021/10/25 12:14:27;;;;;;;3.55;2.28;;;27.30;29.60;;;;;;6220282;28;20058;-75
2021/10/25 12:17:36;;;;;;;2.65;1.75;;;27.60;29.40;;;;;;6216880;28;20116;-73
2021/10/25 12:20:40;;;;;;;8.52;3.63;;;27.80;28.90;;;;;;6204829;28;20030;-73
2021/10/25 12:23:48;;;;;;;3.25;2.25;;;27.50;29.20;;;;;;6216406;28;20467;-75
2021/10/25 12:27:00;;;;;;;5.78;2.10;;;27.00;29.70;;;;;;6235397;28;20046;-74
2021/10/25 12:30:15;;;;;;;4.97;2.53;;;26.40;30.00;;;;;;6222723;28;20034;-74
2021/10/25 12:33:23;;;;;;;12.35;2.40;;;25.80;30.70;;;;;;6216181;28;20119;-72
2021/10/25 12:36:25;;;;;;;5.72;2.08;;;25.30;31.10;;;;;;6207516;28;20066;-76
2021/10/25 12:39:30;;;;;;;4.53;2.20;;;24.90;31.70;;;;;;6220456;28;20458;-76
2021/10/25 12:42:42;;;;;;;6.72;2.30;;;24.50;32.20;;;;;;6218937;28;20076;-73
2021/10/25 12:45:57;;;;;;;9.52;2.65;;;24.00;32.70;;;;;;6206796;28;20092;-73
2021/10/25 12:48:57;;;;;;;3.90;1.98;;;23.60;33.10;;;;;;6220843;28;20431;-73
2021/10/25 12:52:11;;;;;;;8.68;1.88;;;23.30;33.60;;;;;;6222406;28;20092;-72
2021/10/25 12:55:13;;;;;;;3.75;1.98;;;23.00;34.10;;;;;;6220026;28;20129;-75
2021/10/25 12:58:14;;;;;;;2.30;1.52;;;22.80;34.60;;;;;;6223055;28;20033;-73
2021/10/25 13:01:15;;;;;;;6.43;2.20;;;22.60;34.90;;;;;;6221164;28;20053;-72
2021/10/25 13:04:19;;;;;;;5.10;1.80;;;22.50;35.20;;;;;;6220839;28;20034;-75
2021/10/25 13:07:20;;;;;;;5.45;1.70;;;22.40;35.50;;;;;;6221780;28;20037;-73
2021/10/25 13:10:30;;;;;;;4.88;1.80;;;22.20;35.60;;;;;;6223141;28;20063;-73
2021/10/25 13:13:33;;;;;;;3.30;1.83;;;22.10;35.90;;;;;;6215712;28;20081;-73
2021/10/25 13:16:45;;;;;;;3.72;2.20;;;22.00;36.20;;;;;;6222774;28;20064;-73
2021/10/25 13:19:47;;;;;;;4.07;2.70;;;21.90;36.40;;;;;;6222240;28;20148;-73
2021/10/25 13:22:49;;;;;;;5.60;2.30;;;21.90;36.50;;;;;;6219951;28;20038;-74
2021/10/25 13:25:51;;;;;;;6.80;1.70;;;21.80;36.60;;;;;;6221265;28;20451;-74
2021/10/25 13:28:52;;;;;;;6.47;1.85;;;21.80;36.70;;;;;;6218264;28;20069;-73
2021/10/25 13:31:53;;;;;;;8.85;1.92;;;21.80;37.40;;;;;;6221308;28;20030;-73
2021/10/25 13:34:54;;;;;;;10.85;2.53;;;21.80;37.00;;;;;;6219109;28;20034;-73
2021/10/25 13:37:56;;;;;;;3.55;2.15;;;21.70;37.00;;;;;;6213629;28;20038;-74
2021/10/25 13:40:57;;;;;;;2.72;1.67;;;21.80;37.10;;;;;;6221440;28;20414;-74
2021/10/25 13:43:58;;;;;;;3.15;1.63;;;21.70;37.20;;;;;;6220485;28;20188;-74
2021/10/25 13:46:59;;;;;;;3.95;1.60;;;21.60;37.20;;;;;;6221268;28;20418;-74
2021/10/25 13:50:01;;;;;;;9.15;3.22;;;21.70;37.40;;;;;;6222270;28;20116;-73
2021/10/25 13:53:04;;;;;;;7.20;2.72;;;21.60;37.50;;;;;;6220271;28;20057;-73
2021/10/25 13:56:07;;;;;;;8.48;2.83;;;21.60;37.50;;;;;;6219255;28;20040;-74
2021/10/25 13:59:08;;;;;;;3.78;2.08;;;21.60;37.60;;;;;;6219929;28;20040;-73
2021/10/25 14:02:12;;;;;;;15.77;2.13;;;21.60;37.80;;;;;;6222501;28;20037;-76
2021/10/25 14:05:18;;;;;;;9.20;2.63;;;21.60;37.90;;;;;;6219259;28;20033;-72
2021/10/25 14:08:20;;;;;;;3.20;1.67;;;21.60;38.00;;;;;;6220822;28;20037;-72
2021/10/25 14:11:24;;;;;;;4.97;2.22;;;21.60;38.00;;;;;;6220945;28;20031;-72
2021/10/25 14:14:27;;;;;;;6.32;2.10;;;21.60;38.10;;;;;;6215683;28;20029;-73
2021/10/25 14:17:28;;;;;;;21.70;3.72;;;21.60;38.20;;;;;;6214391;28;20035;-74
2021/10/25 14:20:29;;;;;;;6.72;3.15;;;21.60;38.20;;;;;;6218632;28;20036;-72
2021/10/25 14:23:31;;;;;;;2.45;1.60;;;21.60;38.30;;;;;;6200393;28;20543;-74
2021/10/25 14:26:33;;;;;;;5.07;1.58;;;21.60;38.40;;;;;;6211607;28;20069;-73
2021/10/25 14:29:34;;;;;;;3.63;1.55;;;21.60;38.40;;;;;;6216574;28;20034;-74
2021/10/25 14:32:35;;;;;;;2.95;1.63;;;21.60;38.50;;;;;;6220050;28;20371;-74
2021/10/25 14:35:37;;;;;;;27.75;12.30;;;21.60;38.60;;;;;;6213274;28;20043;-74
2021/10/25 14:42:28;;;;;;;4.60;2.25;;;21.50;38.80;;;;;;6128158;28;20105;-72
2021/10/25 14:45:32;;;;;;;13.65;4.95;;;21.50;38.90;;;;;;6142831;28;20039;-73
2021/10/25 14:55:12;;;;;;;5.85;1.92;;;21.50;39.50;;;;;;6144830;28;20407;-74
2021/10/25 14:58:14;;;;;;;12.00;2.42;;;21.40;39.50;;;;;;6144274;28;20507;-73
2021/10/25 15:01:21;;;;;;;4.03;1.95;;;21.40;39.60;;;;;;6150930;28;20114;-72
2021/10/25 15:04:22;;;;;;;13.57;6.85;;;21.40;39.70;;;;;;6156644;28;20126;-73
2021/10/25 15:07:23;;;;;;;24.63;12.00;;;21.40;39.80;;;;;;6176982;28;20031;-73
2021/10/25 15:10:24;;;;;;;7.10;2.28;;;21.40;39.90;;;;;;6131337;28;20434;-72
2021/10/25 15:13:25;;;;;;;3.75;1.60;;;21.40;39.90;;;;;;6160121;28;20479;-73
2021/10/25 15:16:27;;;;;;;10.38;1.75;;;21.40;40.00;;;;;;6133741;28;20041;-72
2021/10/25 15:19:33;;;;;;;4.20;1.92;;;21.30;40.00;;;;;;6217915;28;20096;-72
2021/10/25 15:22:34;;;;;;;4.13;1.77;;;21.30;40.10;;;;;;6221268;28;20169;-72
2021/10/25 15:25:37;;;;;;;5.45;2.00;;;21.30;40.20;;;;;;6218415;28;20074;-72
2021/10/25 15:28:38;;;;;;;6.07;1.88;;;21.20;40.30;;;;;;6219226;28;20099;-72
2021/10/25 15:31:39;;;;;;;4.20;1.70;;;21.20;40.40;;;;;;6222358;28;20040;-73
2021/10/25 15:34:41;;;;;;;6.60;2.20;;;21.10;40.50;;;;;;6218418;28;20444;-72
2021/10/25 15:37:42;;;;;;;5.22;2.20;;;21.10;40.70;;;;;;6220234;28;20072;-72
2021/10/25 15:40:43;;;;;;;3.45;2.35;;;21.00;40.70;;;;;;6219411;28;20359;-71
2021/10/25 15:43:44;;;;;;;7.57;2.10;;;21.00;40.80;;;;;;6221317;28;20049;-72
2021/10/25 15:46:45;;;;;;;4.70;2.10;;;21.00;41.00;;;;;;6240742;28;20042;-72
2021/10/25 15:49:47;;;;;;;11.45;2.85;;;20.90;41.00;;;;;;6240606;28;20038;-71
2021/10/25 15:52:49;;;;;;;4.78;1.90;;;20.90;41.20;;;;;;6223208;28;20068;-71
2021/10/25 15:55:50;;;;;;;12.27;2.45;;;20.80;41.20;;;;;;6223160;28;20418;-72
2021/10/25 15:58:51;;;;;;;7.35;2.55;;;20.80;42.00;;;;;;6224017;28;20034;-72
2021/10/25 16:01:53;;;;;;;4.78;2.42;;;20.70;41.50;;;;;;6225950;28;20372;-73
2021/10/25 16:04:54;;;;;;;7.95;3.05;;;20.70;41.80;;;;;;6224643;28;20030;-72
2021/10/25 16:12:19;;;;;;;10.93;3.03;;;20.60;42.40;;;;;;6222616;28;20053;-72
2021/10/25 16:15:20;;;;;;;5.32;2.60;;;20.50;42.60;;;;;;6225908;28;20037;-71
2021/10/25 16:18:20;;;;;;;14.98;3.60;;;20.40;43.00;;;;;;6226183;28;20391;-71
2021/10/25 16:21:22;;;;;;;18.45;3.55;;;20.40;43.20;;;;;;6226283;28;20364;-72
2021/10/25 16:24:22;;;;;;;9.90;3.17;;;20.30;43.40;;;;;;6225364;28;20479;-71
2021/10/25 16:27:23;;;;;;;11.18;4.50;;;20.30;43.70;;;;;;6209709;28;20048;-73
2021/10/25 16:30:24;;;;;;;10.60;3.20;;;20.30;43.80;;;;;;6226061;28;20100;-72
2021/10/25 16:33:27;;;;;;;10.23;3.55;;;20.20;44.00;;;;;;6227501;28;20034;-71
2021/10/25 16:36:28;;;;;;;9.88;3.35;;;20.10;44.20;;;;;;6209877;28;20034;-73
2021/10/25 16:39:29;;;;;;;6.47;2.95;;;20.00;44.50;;;;;;6224857;28;20140;-72
2021/10/25 16:42:31;;;;;;;12.63;4.00;;;20.00;44.60;;;;;;6226524;28;20498;-72
2021/10/25 16:45:33;;;;;;;8.30;4.07;;;19.90;44.90;;;;;;6225683;28;20040;-72
2021/10/25 16:48:39;;;;;;;7.25;3.40;;;19.80;45.10;;;;;;6226414;28;20053;-71
2021/10/25 16:51:50;;;;;;;8.43;3.20;;;19.80;45.60;;;;;;6225813;28;20046;-71
2021/10/25 16:55:09;;;;;;;8.13;3.65;;;19.70;45.80;;;;;;6199948;28;20049;-71
2021/10/25 17:05:13;;;;;;;7.22;3.47;;;19.50;46.50;;;;;;6214418;28;20157;-71
2021/10/25 17:11:35;;;;;;;17.92;4.68;;;19.30;47.30;;;;;;6229026;28;20045;-72
2021/10/25 17:14:40;;;;;;;20.33;7.47;;;19.20;47.70;;;;;;6219302;28;20053;-72
2021/10/25 17:17:42;;;;;;;24.38;8.93;;;19.20;48.00;;;;;;6214430;28;20052;-73
2021/10/25 17:20:43;;;;;;;19.60;8.40;;;19.20;48.10;;;;;;6213727;28;20394;-74
2021/10/25 17:23:45;;;;;;;16.90;6.57;;;19.10;48.20;;;;;;6217759;28;20057;-73
2021/10/25 17:26:47;;;;;;;29.40;11.05;;;19.10;48.40;;;;;;6221410;28;20462;-72
2021/10/25 17:29:48;;;;;;;84.38;29.63;;;19.10;48.50;;;;;;6217863;28;20120;-73
2021/10/25 17:32:49;;;;;;;26.65;12.02;;;19.10;48.70;;;;;;6209796;28;20029;-73
2021/10/25 17:35:50;;;;;;;50.45;19.75;;;19.00;48.80;;;;;;6214288;28;20038;-72
2021/10/25 17:38:51;;;;;;;29.35;13.40;;;18.90;48.70;;;;;;6218665;28;20112;-73
2021/10/25 17:41:54;;;;;;;56.72;22.55;;;18.90;48.80;;;;;;6209987;28;20046;-71
2021/10/25 17:44:55;;;;;;;58.28;21.42;;;18.90;49.10;;;;;;6210049;28;20109;-73
2021/10/25 17:47:56;;;;;;;73.35;26.90;;;18.80;49.30;;;;;;6219390;28;20052;-72
2021/10/25 17:50:59;;;;;;;42.10;16.27;;;18.80;49.60;;;;;;6202334;28;20041;-72
2021/10/25 17:54:00;;;;;;;15.75;6.20;;;18.70;49.60;;;;;;6220317;28;20116;-73
2021/10/25 17:57:07;;;;;;;11.43;4.97;;;18.70;49.80;;;;;;6214691;28;20030;-73
2021/10/25 18:00:09;;;;;;;13.32;5.32;;;18.60;50.00;;;;;;6218836;28;20026;-73